Time;durP1;ratioP1;P1;durP2;ratioP2;P2;SDS_P1;SDS_P2;PMS_P1;PMS_P2;Temp;Humidity;BMP_temperature;BMP_pressure;BME280_temperature;BME280_humidity;BME280_pressure;Samples;Min_cycle;Max_cycle;Signal;HPM_P1;HPM_P2
2024/01/02 00:01:40;;;;;;;;;;;3.20;99.90;;;;;;4965340;28;19978;-93
2024/01/02 00:04:06;;;;;;;;;;;3.20;99.90;;;;;;4961790;28;19942;-93
2024/01/02 00:06:32;;;;;;;;;;;3.30;99.90;;;;;;4951296;28;19917;-93
2024/01/02 00:08:57;;;;;;;;;;;3.30;99.90;;;;;;4966402;28;19910;-93
2024/01/02 00:11:23;;;;;;;;;;;3.30;99.90;;;;;;4952590;28;19906;-93
2024/01/02 00:13:49;;;;;;;;;;;3.40;99.90;;;;;;4981622;28;20345;-94
2024/01/02 00:16:14;;;;;;;;;;;3.40;99.90;;;;;;4962410;28;19910;-94
2024/01/02 00:18:40;;;;;;;;;;;3.40;99.90;;;;;;4977875;28;19980;-93
2024/01/02 00:21:06;;;;;;;;;;;3.40;99.90;;;;;;4962337;28;19910;-94
2024/01/02 00:23:31;;;;;;;;;;;3.40;99.90;;;;;;4980025;28;20273;-94
2024/01/02 00:25:57;;;;;;;;;;;3.40;99.90;;;;;;4961781;28;20006;-93
2024/01/02 00:28:22;;;;;;;;;;;3.40;99.90;;;;;;4946043;28;20315;-93
2024/01/02 00:30:48;;;;;;;;;;;3.40;99.90;;;;;;4961466;28;20362;-94
2024/01/02 00:33:14;;;;;;;;;;;3.50;99.90;;;;;;4962055;28;19933;-93
2024/01/02 00:35:40;;;;;;;;;;;3.50;99.90;;;;;;4944370;28;19956;-93
2024/01/02 00:41:34;;;;;;;;;;;3.50;99.90;;;;;;4976928;28;20035;-94
2024/01/02 00:44:00;;;;;;;;;;;3.50;99.90;;;;;;4961697;28;19910;-94
2024/01/02 00:46:26;;;;;;;;;;;3.50;99.90;;;;;;4959022;28;19922;-93
2024/01/02 00:48:51;;;;;;;;;;;3.60;99.90;;;;;;4969262;28;19929;-93
2024/01/02 00:51:17;;;;;;;;;;;3.60;99.90;;;;;;4975444;28;19918;-93
2024/01/02 00:53:42;;;;;;;;;;;3.60;99.90;;;;;;4961596;28;20325;-93
2024/01/02 00:56:14;;;;;;;;;;;3.60;99.90;;;;;;4962442;28;20389;-93
2024/01/02 00:58:40;;;;;;;;;;;3.60;99.90;;;;;;4978336;28;19949;-93
2024/01/02 01:01:05;;;;;;;;;;;3.60;99.90;;;;;;4962702;28;20384;-94
2024/01/02 01:03:31;;;;;;;;;;;3.60;99.90;;;;;;4962334;28;19914;-94
2024/01/02 01:05:57;;;;;;;;;;;3.60;99.90;;;;;;4977824;28;19910;-94
2024/01/02 01:08:22;;;;;;;;;;;3.70;99.90;;;;;;4978241;28;19910;-93
2024/01/02 01:10:48;;;;;;;;;;;3.70;99.90;;;;;;4962260;28;19914;-94
2024/01/02 01:13:13;;;;;;;;;;;3.70;99.90;;;;;;4979107;28;19910;-94
2024/01/02 01:15:45;;;;;;;;;;;3.70;99.90;;;;;;4961881;28;19909;-94
2024/01/02 01:18:11;;;;;;;;;;;3.70;99.90;;;;;;4957146;28;19913;-94
2024/01/02 01:20:36;;;;;;;;;;;3.70;99.90;;;;;;4960700;28;19921;-93
2024/01/02 01:23:02;;;;;;;;;;;3.70;99.90;;;;;;4960920;28;19914;-94
2024/01/02 01:25:28;;;;;;;;;;;3.70;99.90;;;;;;4978045;28;19910;-93
2024/01/02 01:27:53;;;;;;;;;;;3.70;99.90;;;;;;4961424;28;19961;-94
2024/01/02 01:30:19;;;;;;;;;;;3.70;99.90;;;;;;4977549;28;19910;-94
2024/01/02 01:32:45;;;;;;;;;;;3.70;99.90;;;;;;4947437;28;19913;-95
2024/01/02 01:35:11;;;;;;;;;;;3.70;99.90;;;;;;4980210;28;19920;-94
2024/01/02 01:37:37;;;;;;;;;;;3.70;99.90;;;;;;4963123;28;20278;-94
2024/01/02 01:40:24;;;;;;;;;;;3.70;99.90;;;;;;4948130;28;19912;-94
2024/01/02 01:42:50;;;;;;;;;;;3.70;99.90;;;;;;4959933;28;19921;-93
2024/01/02 01:45:16;;;;;;;;;;;3.60;99.90;;;;;;4972097;28;19910;-94
2024/01/02 01:47:41;;;;;;;;;;;3.50;99.90;;;;;;4955766;28;19910;-94
2024/01/02 01:50:08;;;;;;;;;;;3.60;99.90;;;;;;4955802;29;19910;-95
2024/01/02 01:52:34;;;;;;;;;;;3.50;99.90;;;;;;4957250;28;19960;-94
2024/01/02 01:55:00;;;;;;;;;;;3.40;99.90;;;;;;4958437;28;19964;-95
2024/01/02 01:57:26;;;;;;;;;;;3.40;99.90;;;;;;4960584;28;19937;-93
2024/01/02 01:59:52;;;;;;;;;;;3.30;99.90;;;;;;4974116;28;20281;-94
2024/01/02 02:02:17;;;;;;;;;;;3.20;99.90;;;;;;4957311;28;19916;-94
2024/01/02 02:04:44;;;;;;;;;;;3.20;99.90;;;;;;4975746;28;19935;-94
2024/01/02 02:07:10;;;;;;;;;;;3.10;99.90;;;;;;4960555;28;19910;-94
2024/01/02 02:09:36;;;;;;;;;;;3.10;99.90;;;;;;4976252;28;20326;-94
2024/01/02 02:12:02;;;;;;;;;;;3.10;99.90;;;;;;4959218;28;19914;-93
2024/01/02 02:14:28;;;;;;;;;;;3.10;99.90;;;;;;4976254;28;19985;-92
2024/01/02 02:16:53;;;;;;;;;;;3.10;99.90;;;;;;4959581;28;19917;-93
2024/01/02 02:19:19;;;;;;;;;;;3.10;99.90;;;;;;4950912;29;19917;-94
2024/01/02 02:21:46;;;;;;;;;;;3.10;99.90;;;;;;4958161;28;19910;-93
2024/01/02 02:24:11;;;;;;;;;;;3.10;99.90;;;;;;4944352;28;19910;-93
2024/01/02 02:26:37;;;;;;;;;;;3.20;99.90;;;;;;4960098;28;20310;-93
2024/01/02 02:29:03;;;;;;;;;;;3.20;99.90;;;;;;4960566;28;19958;-94
2024/01/02 02:31:30;;;;;;;;;;;3.20;99.90;;;;;;4960807;28;19920;-94
2024/01/02 02:33:56;;;;;;;;;;;3.20;99.90;;;;;;4980746;28;19993;-93
2024/01/02 02:36:21;;;;;;;;;;;3.20;99.90;;;;;;4964139;28;19971;-93
2024/01/02 02:38:48;;;;;;;;;;;3.20;99.90;;;;;;4963867;28;19960;-94
2024/01/02 02:41:13;;;;;;;;;;;3.20;99.90;;;;;;4961340;28;20001;-93
2024/01/02 02:43:39;;;;;;;;;;;3.20;99.90;;;;;;4979900;28;19913;-94
2024/01/02 02:46:05;;;;;;;;;;;3.20;99.90;;;;;;4963806;28;19910;-94
2024/01/02 02:48:30;;;;;;;;;;;3.20;99.90;;;;;;4980218;28;19922;-94
2024/01/02 02:50:56;;;;;;;;;;;3.20;99.90;;;;;;4963994;28;19998;-93
2024/01/02 02:53:21;;;;;;;;;;;3.30;99.90;;;;;;4963862;28;19916;-94
2024/01/02 02:55:47;;;;;;;;;;;3.20;99.90;;;;;;4962505;28;19938;-94
2024/01/02 02:58:13;;;;;;;;;;;3.20;99.90;;;;;;4963092;28;19912;-93
2024/01/02 03:00:38;;;;;;;;;;;3.20;99.90;;;;;;4963142;28;19933;-93
2024/01/02 03:03:04;;;;;;;;;;;3.20;99.90;;;;;;4963445;28;20008;-93
2024/01/02 03:05:30;;;;;;;;;;;3.20;99.90;;;;;;4963616;28;20321;-93
2024/01/02 03:07:57;;;;;;;;;;;3.20;99.90;;;;;;4979461;28;19917;-94
2024/01/02 03:10:23;;;;;;;;;;;3.20;99.90;;;;;;4962899;28;19910;-93
2024/01/02 03:12:49;;;;;;;;;;;3.30;99.90;;;;;;4979232;28;20001;-92
2024/01/02 03:15:15;;;;;;;;;;;3.30;99.90;;;;;;4963642;28;19993;-93
2024/01/02 03:21:10;;;;;;;;;;;3.20;99.90;;;;;;4973743;28;19917;-93
2024/01/02 03:23:36;;;;;;;;;;;3.20;99.90;;;;;;4960783;28;20350;-93
2024/01/02 03:26:02;;;;;;;;;;;3.20;99.90;;;;;;4979058;28;19910;-92
2024/01/02 03:28:28;;;;;;;;;;;3.20;99.90;;;;;;4963226;28;20376;-94
2024/01/02 03:30:53;;;;;;;;;;;3.30;99.90;;;;;;4979046;28;19914;-93
2024/01/02 03:33:19;;;;;;;;;;;3.30;99.90;;;;;;4963444;28;19910;-94
2024/01/02 03:35:45;;;;;;;;;;;3.30;99.90;;;;;;4979553;28;19914;-93
2024/01/02 03:38:10;;;;;;;;;;;3.30;99.90;;;;;;4964716;28;19964;-93
2024/01/02 03:40:36;;;;;;;;;;;3.30;99.90;;;;;;4948342;28;19917;-94
2024/01/02 03:43:02;;;;;;;;;;;3.30;99.90;;;;;;4963949;28;19950;-93
2024/01/02 03:45:27;;;;;;;;;;;3.30;99.90;;;;;;4964244;28;20432;-94
2024/01/02 03:47:53;;;;;;;;;;;3.40;99.90;;;;;;4956228;28;19910;-94
2024/01/02 03:50:19;;;;;;;;;;;3.40;99.90;;;;;;4963841;28;19910;-94
2024/01/02 03:52:45;;;;;;;;;;;3.40;99.90;;;;;;4963642;28;19990;-93
2024/01/02 03:55:10;;;;;;;;;;;3.40;99.90;;;;;;4956305;28;21411;-93
2024/01/02 03:57:36;;;;;;;;;;;3.40;99.90;;;;;;4960605;29;19978;-94
2024/01/02 04:00:02;;;;;;;;;;;3.50;99.90;;;;;;4964108;28;19906;-94
2024/01/02 04:02:29;;;;;;;;;;;3.50;99.90;;;;;;4957657;28;19910;-93
2024/01/02 04:04:55;;;;;;;;;;;3.60;99.90;;;;;;4979764;28;19910;-93
2024/01/02 04:07:22;;;;;;;;;;;3.60;99.90;;;;;;4964401;28;19973;-94
2024/01/02 04:09:47;;;;;;;;;;;3.60;99.90;;;;;;4979580;28;19910;-94
2024/01/02 04:12:13;;;;;;;;;;;3.60;99.90;;;;;;4964402;28;19949;-94
2024/01/02 04:14:39;;;;;;;;;;;3.70;99.90;;;;;;4962757;28;19909;-94
2024/01/02 04:17:04;;;;;;;;;;;3.70;99.90;;;;;;4944228;28;20009;-93
2024/01/02 04:19:30;;;;;;;;;;;3.70;99.90;;;;;;4958848;28;20392;-93
2024/01/02 04:21:55;;;;;;;;;;;3.70;99.90;;;;;;4947244;28;19910;-94
2024/01/02 04:24:22;;;;;;;;;;;3.80;99.90;;;;;;4964156;28;19913;-94
2024/01/02 04:26:47;;;;;;;;;;;3.80;99.90;;;;;;4963002;28;19910;-94
2024/01/02 04:29:13;;;;;;;;;;;3.80;99.90;;;;;;4959255;29;20358;-94
2024/01/02 04:31:38;;;;;;;;;;;3.80;99.90;;;;;;4947260;28;19963;-92
2024/01/02 04:34:04;;;;;;;;;;;3.80;99.90;;;;;;4980351;28;19910;-94
2024/01/02 04:36:29;;;;;;;;;;;3.80;99.90;;;;;;4963873;28;19997;-94
2024/01/02 04:38:55;;;;;;;;;;;3.80;99.90;;;;;;4981117;28;20358;-93
2024/01/02 04:41:21;;;;;;;;;;;3.80;99.90;;;;;;4958335;29;19945;-94
2024/01/02 04:43:46;;;;;;;;;;;3.90;99.90;;;;;;4976739;28;20000;-94
2024/01/02 04:46:12;;;;;;;;;;;3.80;99.90;;;;;;4963040;28;19917;-94
2024/01/02 04:48:37;;;;;;;;;;;3.80;99.90;;;;;;4947428;28;19965;-95
2024/01/02 04:51:03;;;;;;;;;;;3.80;99.90;;;;;;4976534;28;19914;-94
2024/01/02 04:53:28;;;;;;;;;;;3.80;99.90;;;;;;4958084;28;20317;-95
2024/01/02 04:55:54;;;;;;;;;;;3.80;99.90;;;;;;4955361;28;19910;-94
2024/01/02 04:58:20;;;;;;;;;;;3.90;99.90;;;;;;4962943;28;20349;-94
2024/01/02 05:00:46;;;;;;;;;;;3.90;99.90;;;;;;4961112;28;20269;-93
2024/01/02 05:03:12;;;;;;;;;;;3.90;99.90;;;;;;4951809;28;19910;-93
2024/01/02 05:05:37;;;;;;;;;;;3.90;99.90;;;;;;4957400;28;19910;-94
2024/01/02 05:08:03;;;;;;;;;;;3.90;99.90;;;;;;4976502;28;19924;-94
2024/01/02 05:10:29;;;;;;;;;;;3.90;99.90;;;;;;4976769;28;20000;-94
2024/01/02 05:12:54;;;;;;;;;;;3.90;99.90;;;;;;4977548;28;20414;-92
2024/01/02 05:15:20;;;;;;;;;;;3.90;99.90;;;;;;4961285;28;19917;-93
2024/01/02 05:17:46;;;;;;;;;;;4.00;99.90;;;;;;4976937;28;19941;-93
2024/01/02 05:20:12;;;;;;;;;;;4.00;99.90;;;;;;4960304;28;19968;-93
2024/01/02 05:22:37;;;;;;;;;;;4.00;99.90;;;;;;4977687;28;20719;-94
2024/01/02 05:25:03;;;;;;;;;;;4.00;99.90;;;;;;4960769;28;19917;-93
2024/01/02 05:27:28;;;;;;;;;;;4.00;99.90;;;;;;4961550;28;20016;-92
2024/01/02 05:29:54;;;;;;;;;;;4.00;99.90;;;;;;4955399;28;19914;-94
2024/01/02 05:32:20;;;;;;;;;;;4.10;99.90;;;;;;4961936;28;19918;-93
2024/01/02 05:34:45;;;;;;;;;;;4.10;99.90;;;;;;4961926;28;20247;-94
2024/01/02 05:37:11;;;;;;;;;;;4.10;99.90;;;;;;4946107;28;19921;-94
2024/01/02 05:39:36;;;;;;;;;;;4.10;99.90;;;;;;4962742;28;19910;-94
2024/01/02 05:42:02;;;;;;;;;;;4.10;99.90;;;;;;4962003;28;20277;-94
2024/01/02 05:44:28;;;;;;;;;;;4.10;99.90;;;;;;4961725;28;19976;-93
2024/01/02 05:46:53;;;;;;;;;;;4.10;99.90;;;;;;4977760;28;19909;-93
2024/01/02 05:52:42;;;;;;;;;;;4.10;99.90;;;;;;4976090;28;19968;-94
2024/01/02 05:55:07;;;;;;;;;;;4.10;99.90;;;;;;4976234;28;19910;-94
2024/01/02 05:57:33;;;;;;;;;;;4.10;99.90;;;;;;4956882;28;19910;-94
2024/01/02 05:59:59;;;;;;;;;;;4.10;99.90;;;;;;4976330;28;19909;-92
2024/01/02 06:02:24;;;;;;;;;;;4.10;99.90;;;;;;4960546;28;19910;-95
2024/01/02 06:04:50;;;;;;;;;;;4.20;99.90;;;;;;4977128;28;19910;-93
2024/01/02 06:07:15;;;;;;;;;;;4.30;99.90;;;;;;4960524;28;19906;-93
2024/01/02 06:09:41;;;;;;;;;;;4.20;99.90;;;;;;4960180;28;19966;-92
2024/01/02 06:12:08;;;;;;;;;;;4.20;99.90;;;;;;4975884;28;19914;-93
2024/01/02 06:14:34;;;;;;;;;;;4.20;99.90;;;;;;4960325;28;20376;-92
2024/01/02 06:16:59;;;;;;;;;;;4.20;99.90;;;;;;4960103;28;19910;-93
2024/01/02 06:19:25;;;;;;;;;;;4.30;99.90;;;;;;4959931;28;19917;-93
2024/01/02 06:21:51;;;;;;;;;;;4.30;99.90;;;;;;4960041;28;19917;-93
2024/01/02 06:24:16;;;;;;;;;;;4.30;99.90;;;;;;4976658;28;19910;-93
2024/01/02 06:26:42;;;;;;;;;;;4.30;99.90;;;;;;4959924;28;19917;-93
2024/01/02 06:29:07;;;;;;;;;;;4.30;99.90;;;;;;4983269;28;19917;-93
2024/01/02 06:31:33;;;;;;;;;;;4.40;99.90;;;;;;4960006;28;19913;-93
2024/01/02 06:33:59;;;;;;;;;;;4.40;99.90;;;;;;4976088;28;20052;-92
2024/01/02 06:36:25;;;;;;;;;;;4.40;99.90;;;;;;4960148;28;19914;-91
2024/01/02 06:38:50;;;;;;;;;;;4.50;99.90;;;;;;4976178;28;20334;-94
2024/01/02 06:41:16;;;;;;;;;;;4.50;99.90;;;;;;4960182;28;19917;-93
2024/01/02 06:43:47;;;;;;;;;;;4.50;99.90;;;;;;4976860;28;20358;-93
2024/01/02 06:46:13;;;;;;;;;;;4.50;99.90;;;;;;4957357;28;19914;-91
2024/01/02 06:48:40;;;;;;;;;;;4.50;99.90;;;;;;4977040;28;20353;-94
2024/01/02 06:51:26;;;;;;;;;;;4.60;99.90;;;;;;4959873;28;19945;-92
2024/01/02 06:53:52;;;;;;;;;;;4.60;99.90;;;;;;4959658;28;19916;-93
2024/01/02 06:56:18;;;;;;;;;;;4.60;99.90;;;;;;4968949;28;19910;-91
2024/01/02 06:58:44;;;;;;;;;;;4.70;99.90;;;;;;4944561;28;20321;-92
2024/01/02 07:01:12;;;;;;;;;;;4.70;99.90;;;;;;4972361;28;19917;-92
2024/01/02 07:03:38;;;;;;;;;;;4.70;99.90;;;;;;4956341;28;19910;-93
2024/01/02 07:06:04;;;;;;;;;;;4.80;99.90;;;;;;4977337;28;19955;-93
2024/01/02 07:08:30;;;;;;;;;;;4.80;99.90;;;;;;4957810;28;19910;-94
2024/01/02 07:10:55;;;;;;;;;;;4.80;99.90;;;;;;4955367;28;19921;-94
2024/01/02 07:13:21;;;;;;;;;;;4.80;99.90;;;;;;4977733;28;19918;-92
2024/01/02 07:15:47;;;;;;;;;;;4.90;99.90;;;;;;4974544;28;20033;-92
2024/01/02 07:18:12;;;;;;;;;;;4.90;99.90;;;;;;4974699;28;19945;-91
2024/01/02 07:20:38;;;;;;;;;;;4.90;99.90;;;;;;4975670;28;19910;-93
2024/01/02 07:23:03;;;;;;;;;;;5.00;99.90;;;;;;4970560;28;19914;-89
2024/01/02 07:25:29;;;;;;;;;;;5.00;99.90;;;;;;4969935;28;19921;-89
2024/01/02 07:27:55;;;;;;;;;;;5.00;99.90;;;;;;4975894;28;19910;-89
2024/01/02 07:30:21;;;;;;;;;;;5.00;99.90;;;;;;4957903;28;19977;-88
2024/01/02 07:32:46;;;;;;;;;;;5.00;99.90;;;;;;4962005;28;20008;-88
2024/01/02 07:35:12;;;;;;;;;;;5.00;99.90;;;;;;4967362;28;19910;-89
2024/01/02 07:37:38;;;;;;;;;;;5.00;99.90;;;;;;4966138;28;19938;-88
2024/01/02 07:40:03;;;;;;;;;;;5.10;99.90;;;;;;4961177;28;19910;-87
2024/01/02 07:42:31;;;;;;;;;;;5.10;99.90;;;;;;4960713;28;19917;-89
2024/01/02 07:45:02;;;;;;;;;;;5.10;99.90;;;;;;4972163;28;20000;-88
2024/01/02 07:47:28;;;;;;;;;;;5.10;99.90;;;;;;4974984;28;19959;-89
2024/01/02 07:49:54;;;;;;;;;;;5.10;99.90;;;;;;4975623;28;19910;-88
2024/01/02 07:52:23;;;;;;;;;;;5.10;99.90;;;;;;4960200;28;19945;-88
2024/01/02 07:54:48;;;;;;;;;;;5.20;99.90;;;;;;4974488;28;19953;-88
2024/01/02 07:57:14;;;;;;;;;;;5.20;99.90;;;;;;4959097;28;19933;-89
2024/01/02 07:59:40;;;;;;;;;;;5.20;99.90;;;;;;4959457;28;19922;-89
2024/01/02 08:02:05;;;;;;;;;;;5.20;99.90;;;;;;4975059;28;19910;-87
2024/01/02 08:04:31;;;;;;;;;;;5.20;99.90;;;;;;4959538;28;19918;-88
2024/01/02 08:07:01;;;;;;;;;;;5.20;99.90;;;;;;4957910;28;19910;-88
2024/01/02 08:09:27;;;;;;;;;;;5.20;99.90;;;;;;4956360;28;19917;-88
2024/01/02 08:11:53;;;;;;;;;;;5.30;99.90;;;;;;4960573;28;20354;-89
2024/01/02 08:14:19;;;;;;;;;;;5.30;99.90;;;;;;4943607;28;19914;-88
2024/01/02 08:16:45;;;;;;;;;;;5.30;99.90;;;;;;4957348;28;19921;-87
2024/01/02 08:19:10;;;;;;;;;;;5.30;99.90;;;;;;4964852;28;20412;-89
2024/01/02 08:21:36;;;;;;;;;;;5.30;99.90;;;;;;4954719;28;20008;-88
2024/01/02 08:24:03;;;;;;;;;;;5.30;99.90;;;;;;4973885;28;20344;-90
2024/01/02 08:26:28;;;;;;;;;;;5.30;99.90;;;;;;4959359;28;20405;-90
2024/01/02 08:28:54;;;;;;;;;;;5.30;99.90;;;;;;4958858;28;19914;-87
2024/01/02 08:31:19;;;;;;;;;;;5.30;99.90;;;;;;4943102;28;19918;-88
2024/01/02 08:33:48;;;;;;;;;;;5.30;99.90;;;;;;4959395;28;19984;-88
2024/01/02 08:36:13;;;;;;;;;;;5.40;99.90;;;;;;4966826;28;19910;-88
2024/01/02 08:38:39;;;;;;;;;;;5.40;99.90;;;;;;4959946;28;20376;-89
2024/01/02 08:41:08;;;;;;;;;;;5.40;99.90;;;;;;4958840;28;19906;-89
2024/01/02 08:43:33;;;;;;;;;;;5.40;99.90;;;;;;4943739;28;19918;-89
2024/01/02 08:45:59;;;;;;;;;;;5.40;99.90;;;;;;4975363;28;19906;-89
2024/01/02 08:48:26;;;;;;;;;;;5.40;99.90;;;;;;4957894;28;19914;-90
2024/01/02 08:50:51;;;;;;;;;;;5.40;99.90;;;;;;4937067;28;19914;-90
2024/01/02 08:53:17;;;;;;;;;;;5.40;99.90;;;;;;4972589;28;20277;-89
2024/01/02 08:55:43;;;;;;;;;;;5.40;99.90;;;;;;4959277;28;19977;-90
2024/01/02 08:58:08;;;;;;;;;;;5.40;99.90;;;;;;4960173;28;20550;-89
2024/01/02 09:00:34;;;;;;;;;;;5.40;99.90;;;;;;4964257;28;19981;-90
2024/01/02 09:03:01;;;;;;;;;;;5.40;99.90;;;;;;4965072;28;19914;-90
2024/01/02 09:05:26;;;;;;;;;;;5.50;99.90;;;;;;4956340;28;19961;-90
2024/01/02 09:07:52;;;;;;;;;;;5.50;99.90;;;;;;4969999;28;19910;-89
2024/01/02 09:10:22;;;;;;;;;;;5.50;99.90;;;;;;4954785;28;19917;-89
2024/01/02 09:12:47;;;;;;;;;;;5.50;99.90;;;;;;4961870;28;19914;-89
2024/01/02 09:15:22;;;;;;;;;;;5.50;99.90;;;;;;4965196;28;19910;-88
2024/01/02 09:17:48;;;;;;;;;;;5.50;99.90;;;;;;4975101;28;19916;-90
2024/01/02 09:20:31;;;;;;;;;;;5.50;99.90;;;;;;4975319;28;20004;-90
2024/01/02 09:22:57;;;;;;;;;;;5.50;99.90;;;;;;4971600;28;19921;-91
2024/01/02 09:25:25;;;;;;;;;;;5.50;99.90;;;;;;4975101;28;19918;-89
2024/01/02 09:27:53;;;;;;;;;;;5.50;99.90;;;;;;4970575;28;19910;-89
2024/01/02 09:30:18;;;;;;;;;;;5.60;99.90;;;;;;4976668;28;19973;-89
2024/01/02 09:32:44;;;;;;;;;;;5.60;99.90;;;;;;4944005;28;20313;-90
2024/01/02 09:35:10;;;;;;;;;;;5.60;99.90;;;;;;4943263;28;19917;-90
2024/01/02 09:37:35;;;;;;;;;;;5.60;99.90;;;;;;4975353;28;19910;-89
2024/01/02 09:40:03;;;;;;;;;;;5.70;99.90;;;;;;4958723;28;20031;-91
2024/01/02 09:42:49;;;;;;;;;;;5.60;99.90;;;;;;4959086;28;19913;-89
2024/01/02 09:45:32;;;;;;;;;;;5.60;99.90;;;;;;4958624;28;19921;-89
2024/01/02 09:48:04;;;;;;;;;;;5.70;99.90;;;;;;4942691;28;19914;-90
2024/01/02 09:50:36;;;;;;;;;;;5.70;99.90;;;;;;4976547;28;19916;-90
2024/01/02 09:53:17;;;;;;;;;;;5.70;99.90;;;;;;4957974;28;19980;-90
2024/01/02 09:55:59;;;;;;;;;;;5.70;99.90;;;;;;4959197;28;20370;-90
2024/01/02 09:58:44;;;;;;;;;;;5.70;99.90;;;;;;4974688;28;19917;-91
2024/01/02 10:01:15;;;;;;;;;;;5.80;99.90;;;;;;4970204;28;19914;-90
2024/01/02 10:03:59;;;;;;;;;;;5.80;99.90;;;;;;4951181;28;19961;-90
2024/01/02 10:06:25;;;;;;;;;;;5.80;99.90;;;;;;4958346;28;19910;-90
2024/01/02 10:08:50;;;;;;;;;;;5.70;99.90;;;;;;4966647;28;20012;-91
2024/01/02 10:11:20;;;;;;;;;;;5.80;99.90;;;;;;4957739;28;20369;-90
2024/01/02 10:13:48;;;;;;;;;;;5.80;99.90;;;;;;4957232;28;19917;-90
2024/01/02 10:16:14;;;;;;;;;;;5.80;99.90;;;;;;4965244;28;19907;-91
2024/01/02 10:19:12;;;;;;;;;;;5.80;99.90;;;;;;4958350;28;19933;-90
2024/01/02 10:21:45;;;;;;;;;;;5.80;99.90;;;;;;4915831;29;19910;-91
2024/01/02 10:24:20;;;;;;;;;;;5.80;99.90;;;;;;4973275;28;19925;-91
2024/01/02 10:26:53;;;;;;;;;;;5.80;99.90;;;;;;4957880;28;19910;-88
2024/01/02 10:29:27;;;;;;;;;;;5.80;99.90;;;;;;4974470;28;20366;-90
2024/01/02 10:31:59;;;;;;;;;;;5.80;99.90;;;;;;4974266;28;20380;-89
2024/01/02 10:34:28;;;;;;;;;;;5.90;99.90;;;;;;4971718;28;20005;-89
2024/01/02 10:37:00;;;;;;;;;;;5.90;99.90;;;;;;4960927;28;19910;-89
2024/01/02 10:39:31;;;;;;;;;;;5.90;99.90;;;;;;4947747;28;19948;-90
2024/01/02 10:42:07;;;;;;;;;;;5.90;99.90;;;;;;4975756;28;19910;-89
2024/01/02 10:44:40;;;;;;;;;;;5.90;99.90;;;;;;4959237;28;20377;-90
2024/01/02 10:47:17;;;;;;;;;;;5.90;99.90;;;;;;4975570;28;19910;-89
2024/01/02 10:50:03;;;;;;;;;;;5.90;99.90;;;;;;4969314;28;19918;-90
2024/01/02 10:52:37;;;;;;;;;;;5.90;99.90;;;;;;4946479;28;19921;-90
2024/01/02 10:55:14;;;;;;;;;;;5.90;99.90;;;;;;4941756;28;19964;-90
2024/01/02 10:57:45;;;;;;;;;;;5.90;99.90;;;;;;4969425;28;19964;-90
2024/01/02 11:00:18;;;;;;;;;;;5.90;99.90;;;;;;4973722;28;19914;-90
2024/01/02 11:03:07;;;;;;;;;;;5.90;99.90;;;;;;4960162;28;20362;-89
2024/01/02 11:05:43;;;;;;;;;;;5.90;99.90;;;;;;4976295;28;19917;-89
2024/01/02 11:08:14;;;;;;;;;;;5.90;99.90;;;;;;4973030;28;19911;-90
2024/01/02 11:10:48;;;;;;;;;;;5.90;99.90;;;;;;4969443;28;20409;-91
2024/01/02 11:13:15;;;;;;;;;;;6.00;99.90;;;;;;4973834;28;20277;-90
2024/01/02 11:15:41;;;;;;;;;;;6.00;99.90;;;;;;4975277;28;20455;-90
2024/01/02 11:18:07;;;;;;;;;;;6.00;99.90;;;;;;4977654;28;19964;-88
2024/01/02 11:20:44;;;;;;;;;;;6.00;99.90;;;;;;4957742;28;19915;-90
2024/01/02 11:23:13;;;;;;;;;;;6.00;99.90;;;;;;4961047;28;19973;-90
2024/01/02 11:26:01;;;;;;;;;;;6.10;99.90;;;;;;4960906;28;19914;-91
2024/01/02 11:28:45;;;;;;;;;;;6.10;99.90;;;;;;4980010;28;19910;-88
2024/01/02 11:31:13;;;;;;;;;;;6.10;99.90;;;;;;4945443;28;19914;-90
2024/01/02 11:33:58;;;;;;;;;;;6.10;99.90;;;;;;4960630;28;19987;-91
2024/01/02 11:36:28;;;;;;;;;;;6.10;99.90;;;;;;4978931;28;19913;-90
2024/01/02 11:38:53;;;;;;;;;;;6.10;99.90;;;;;;4972134;28;19910;-90
2024/01/02 11:41:33;;;;;;;;;;;6.10;99.90;;;;;;4959469;28;19906;-89
2024/01/02 11:43:59;;;;;;;;;;;6.10;99.90;;;;;;4945288;28;19993;-90
2024/01/02 11:46:25;;;;;;;;;;;6.10;99.90;;;;;;4960385;28;19910;-91
2024/01/02 11:49:10;;;;;;;;;;;6.10;99.90;;;;;;4941817;28;19924;-91
2024/01/02 11:51:38;;;;;;;;;;;6.10;99.90;;;;;;4970323;28;19914;-90
2024/01/02 11:54:07;;;;;;;;;;;6.20;99.90;;;;;;4943034;28;20269;-90
2024/01/02 11:56:33;;;;;;;;;;;6.20;99.90;;;;;;4963657;28;19961;-91
2024/01/02 11:59:03;;;;;;;;;;;6.10;99.90;;;;;;4952709;29;19944;-90
2024/01/02 12:01:32;;;;;;;;;;;6.10;99.90;;;;;;4955044;28;19918;-90
2024/01/02 12:04:06;;;;;;;;;;;6.20;99.90;;;;;;4960224;28;19957;-90
2024/01/02 12:06:51;;;;;;;;;;;6.20;99.90;;;;;;4959614;28;19914;-89
2024/01/02 12:09:18;;;;;;;;;;;6.20;99.90;;;;;;4975867;28;19910;-89
2024/01/02 12:11:52;;;;;;;;;;;6.20;99.90;;;;;;4957625;28;19914;-89
2024/01/02 12:14:50;;;;;;;;;;;6.20;99.90;;;;;;4954879;28;20247;-90
2024/01/02 12:17:20;;;;;;;;;;;6.20;99.90;;;;;;4919452;28;19917;-89
2024/01/02 12:19:46;;;;;;;;;;;6.20;99.90;;;;;;4959481;28;19917;-90
2024/01/02 12:22:12;;;;;;;;;;;6.20;99.90;;;;;;4975899;28;19913;-89
2024/01/02 12:24:38;;;;;;;;;;;6.20;99.90;;;;;;4959642;28;19960;-90
2024/01/02 12:27:05;;;;;;;;;;;6.20;99.90;;;;;;4960543;28;20365;-90
2024/01/02 12:29:37;;;;;;;;;;;6.20;99.90;;;;;;4960001;28;19973;-87
2024/01/02 12:32:09;;;;;;;;;;;6.20;99.90;;;;;;4959585;28;19921;-87
2024/01/02 12:34:43;;;;;;;;;;;6.20;99.90;;;;;;4955993;28;19910;-89
2024/01/02 12:37:09;;;;;;;;;;;6.20;99.90;;;;;;4959243;28;19953;-88
2024/01/02 12:39:38;;;;;;;;;;;6.30;99.90;;;;;;4960018;28;19906;-90
2024/01/02 12:42:05;;;;;;;;;;;6.30;99.90;;;;;;4959485;28;19949;-90
2024/01/02 12:44:34;;;;;;;;;;;6.30;99.90;;;;;;4944158;28;20371;-91
2024/01/02 12:47:09;;;;;;;;;;;6.30;99.90;;;;;;4943044;28;19941;-89
2024/01/02 12:49:48;;;;;;;;;;;6.30;99.90;;;;;;4956052;28;20367;-89
2024/01/02 12:52:19;;;;;;;;;;;6.30;99.90;;;;;;4957697;28;19918;-90
2024/01/02 12:54:46;;;;;;;;;;;6.30;99.90;;;;;;4942575;28;19966;-89
2024/01/02 12:57:13;;;;;;;;;;;6.30;99.90;;;;;;4951198;28;19913;-91
2024/01/02 12:59:39;;;;;;;;;;;6.30;99.90;;;;;;4973301;28;19914;-90
2024/01/02 13:02:06;;;;;;;;;;;6.30;99.90;;;;;;4971569;28;19921;-90
2024/01/02 13:04:59;;;;;;;;;;;6.30;99.90;;;;;;4948970;28;19921;-89
2024/01/02 13:07:25;;;;;;;;;;;6.30;99.90;;;;;;4956194;28;19918;-90
2024/01/02 13:09:51;;;;;;;;;;;6.30;99.90;;;;;;4950732;28;19914;-89
2024/01/02 13:12:17;;;;;;;;;;;6.30;99.90;;;;;;4971995;28;20653;-90
2024/01/02 13:14:44;;;;;;;;;;;6.40;99.90;;;;;;4956823;28;20258;-90
2024/01/02 13:17:09;;;;;;;;;;;6.40;99.90;;;;;;4948787;28;19961;-89
2024/01/02 13:19:37;;;;;;;;;;;6.30;99.90;;;;;;4953500;28;19910;-89
2024/01/02 13:22:02;;;;;;;;;;;6.30;99.90;;;;;;4957600;28;19913;-89
2024/01/02 13:24:43;;;;;;;;;;;6.30;99.90;;;;;;4957642;28;19993;-89
2024/01/02 13:27:09;;;;;;;;;;;6.30;99.90;;;;;;4968882;28;19960;-88
2024/01/02 13:29:35;;;;;;;;;;;6.30;99.90;;;;;;4971495;28;19910;-89
2024/01/02 13:32:06;;;;;;;;;;;6.40;99.90;;;;;;4969116;28;20012;-90
2024/01/02 13:37:22;;;;;;;;;;;6.30;99.90;;;;;;4964871;28;19925;-88
2024/01/02 13:39:48;;;;;;;;;;;6.40;99.90;;;;;;4968783;28;20357;-92
2024/01/02 13:42:24;;;;;;;;;;;6.40;99.90;;;;;;4972728;28;19917;-90
2024/01/02 13:44:50;;;;;;;;;;;6.40;99.90;;;;;;4953354;28;20281;-89
2024/01/02 13:47:16;;;;;;;;;;;6.40;99.90;;;;;;4966334;28;19910;-89
2024/01/02 13:49:45;;;;;;;;;;;6.40;99.90;;;;;;4951579;28;20001;-90
2024/01/02 13:52:10;;;;;;;;;;;6.40;99.90;;;;;;4957074;28;19914;-90
2024/01/02 13:54:40;;;;;;;;;;;6.40;99.90;;;;;;4968739;28;19921;-89
2024/01/02 13:57:06;;;;;;;;;;;6.40;99.90;;;;;;4939554;28;19914;-89
2024/01/02 13:59:33;;;;;;;;;;;6.40;99.90;;;;;;4941772;28;19910;-89
2024/01/02 14:02:03;;;;;;;;;;;6.40;99.90;;;;;;4954377;28;19914;-90
2024/01/02 14:04:29;;;;;;;;;;;6.40;99.90;;;;;;4957075;28;19914;-89
2024/01/02 14:07:01;;;;;;;;;;;6.40;99.90;;;;;;4965495;28;19945;-90
2024/01/02 14:09:27;;;;;;;;;;;6.40;99.90;;;;;;4959594;28;19918;-90
2024/01/02 14:11:56;;;;;;;;;;;6.40;99.90;;;;;;4957245;28;20392;-90
2024/01/02 14:14:34;;;;;;;;;;;6.40;99.90;;;;;;4958612;28;19961;-89
2024/01/02 14:17:02;;;;;;;;;;;6.40;99.90;;;;;;4955196;28;19962;-89
2024/01/02 14:19:30;;;;;;;;;;;6.40;99.90;;;;;;4966809;28;20300;-89
2024/01/02 14:21:59;;;;;;;;;;;6.40;99.90;;;;;;4940030;28;19917;-91
2024/01/02 14:24:35;;;;;;;;;;;6.40;99.90;;;;;;4965931;28;19961;-90
2024/01/02 14:27:30;;;;;;;;;;;6.40;99.90;;;;;;4955756;28;19913;-90
2024/01/02 14:30:25;;;;;;;;;;;6.40;99.90;;;;;;4950017;28;19962;-90
2024/01/02 14:33:03;;;;;;;;;;;6.40;99.90;;;;;;4930629;28;19913;-89
2024/01/02 14:35:52;;;;;;;;;;;6.40;99.90;;;;;;4945443;28;20004;-89
2024/01/02 14:38:37;;;;;;;;;;;6.50;99.90;;;;;;4908928;28;19933;-90
2024/01/02 14:41:21;;;;;;;;;;;6.50;99.90;;;;;;4964965;28;20000;-89
2024/01/02 14:44:07;;;;;;;;;;;6.50;99.90;;;;;;4971425;28;19968;-88
2024/01/02 14:46:33;;;;;;;;;;;6.50;99.90;;;;;;4957633;28;20413;-90
2024/01/02 14:48:58;;;;;;;;;;;6.50;99.90;;;;;;4977542;28;19910;-88
2024/01/02 14:51:37;;;;;;;;;;;6.50;99.90;;;;;;4963723;28;19914;-89